Time;durP1;ratioP1;P1;durP2;ratioP2;P2;SDS_P1;SDS_P2;PMS_P1;PMS_P2;Temp;Humidity;BMP_temperature;BMP_pressure;BME280_temperature;BME280_humidity;BME280_pressure;Samples;Min_cycle;Max_cycle;Signal;HPM_P1;HPM_P2
2024/01/31 00:00:07;;;;;;;4.55;2.17;;;7.70;1.00;;;;;;4982285;28;20034;-82
2024/01/31 00:02:33;;;;;;;4.25;2.35;;;7.80;1.00;;;;;;4982351;28;20034;-82
2024/01/31 00:05:00;;;;;;;2.33;2.20;;;7.80;1.00;;;;;;4985747;28;20582;-81
2024/01/31 00:07:26;;;;;;;2.70;2.40;;;7.80;1.00;;;;;;4981521;28;20030;-82
2024/01/31 00:09:52;;;;;;;2.83;2.15;;;7.80;1.00;;;;;;4978292;28;20371;-82
2024/01/31 00:12:18;;;;;;;2.00;1.88;;;7.70;1.00;;;;;;4985266;28;20036;-81
2024/01/31 00:14:45;;;;;;;1.40;1.30;;;7.80;1.00;;;;;;4983980;28;20065;-82
2024/01/31 00:17:11;;;;;;;2.25;2.05;;;7.90;1.00;;;;;;4999996;28;20026;-82
2024/01/31 00:19:37;;;;;;;6.53;2.00;;;7.90;1.00;;;;;;4979082;28;20027;-81
2024/01/31 00:22:03;;;;;;;5.50;3.50;;;7.90;1.00;;;;;;4981985;28;20050;-82
2024/01/31 00:24:30;;;;;;;2.88;1.92;;;8.00;1.00;;;;;;4985694;28;20049;-81
2024/01/31 00:26:56;;;;;;;1.08;1.08;;;7.90;1.00;;;;;;4981093;28;20376;-82
2024/01/31 00:29:22;;;;;;;1.00;0.90;;;7.90;1.00;;;;;;4981299;28;20034;-82
2024/01/31 00:31:49;;;;;;;3.22;1.13;;;8.00;1.00;;;;;;4981267;28;20042;-82
2024/01/31 00:34:15;;;;;;;2.70;2.38;;;8.00;1.00;;;;;;4983387;28;20038;-82
2024/01/31 00:36:41;;;;;;;2.28;1.67;;;8.00;1.00;;;;;;4987119;28;20047;-82
2024/01/31 00:39:07;;;;;;;3.22;2.30;;;8.00;1.00;;;;;;4985063;28;20046;-82
2024/01/31 00:41:34;;;;;;;2.35;2.22;;;8.10;1.00;;;;;;4973417;28;20492;-81
2024/01/31 00:44:00;;;;;;;1.45;1.35;;;8.00;1.00;;;;;;4972858;28;20783;-82
2024/01/31 00:46:26;;;;;;;1.83;1.70;;;8.10;1.00;;;;;;4987605;28;20369;-81
2024/01/31 00:48:52;;;;;;;1.60;1.48;;;8.10;1.00;;;;;;4988477;28;20049;-81
2024/01/31 00:51:18;;;;;;;2.13;1.92;;;8.10;1.00;;;;;;4986957;28;20376;-81
2024/01/31 00:53:45;;;;;;;2.08;1.90;;;8.10;1.00;;;;;;4981627;28;20038;-81
2024/01/31 00:56:11;;;;;;;3.88;2.20;;;8.10;1.00;;;;;;4987555;28;20034;-81
2024/01/31 00:58:38;;;;;;;4.28;2.08;;;8.10;1.00;;;;;;4987303;28;20030;-81
2024/01/31 01:01:04;;;;;;;2.15;1.95;;;8.10;1.00;;;;;;4976636;28;20034;-81
2024/01/31 01:03:30;;;;;;;2.90;1.85;;;8.20;1.00;;;;;;4989144;28;20034;-81
2024/01/31 01:05:57;;;;;;;2.10;1.50;;;8.20;1.00;;;;;;4990135;28;20027;-81
2024/01/31 01:08:23;;;;;;;1.73;1.35;;;8.20;1.00;;;;;;4994838;28;20027;-81
2024/01/31 01:10:49;;;;;;;2.40;1.27;;;8.20;1.00;;;;;;4987078;28;20038;-82
2024/01/31 01:13:15;;;;;;;3.03;1.95;;;8.30;1.00;;;;;;4994478;28;20039;-81
2024/01/31 01:15:42;;;;;;;4.13;2.42;;;8.30;1.00;;;;;;4989853;28;20368;-80
2024/01/31 01:18:08;;;;;;;0.98;0.90;;;8.30;1.00;;;;;;5003517;28;20022;-81
2024/01/31 01:20:34;;;;;;;5.90;1.48;;;8.30;1.00;;;;;;4990092;28;20394;-81
2024/01/31 01:23:00;;;;;;;3.25;1.52;;;8.20;1.00;;;;;;4985671;28;20046;-81
2024/01/31 01:25:26;;;;;;;1.30;1.20;;;8.30;1.00;;;;;;4991802;28;20026;-81
2024/01/31 01:27:53;;;;;;;1.77;1.67;;;8.30;1.00;;;;;;4989710;28;20026;-82
2024/01/31 01:30:20;;;;;;;1.08;0.93;;;8.20;1.00;;;;;;4993089;28;20062;-81
2024/01/31 01:32:46;;;;;;;4.60;2.58;;;8.20;1.00;;;;;;4990744;28;20058;-81
2024/01/31 01:35:13;;;;;;;2.80;2.22;;;8.20;1.00;;;;;;4993765;28;20352;-81
2024/01/31 01:37:40;;;;;;;2.58;2.35;;;8.20;1.00;;;;;;4994307;28;20042;-81
2024/01/31 01:40:08;;;;;;;1.00;1.00;;;8.20;1.00;;;;;;4988982;28;20117;-81
2024/01/31 01:42:40;;;;;;;1.58;1.48;;;8.20;1.00;;;;;;5001692;28;20050;-82
2024/01/31 01:45:07;;;;;;;2.17;1.95;;;8.20;1.00;;;;;;5005986;28;20110;-82
2024/01/31 01:47:34;;;;;;;5.35;2.90;;;8.10;1.00;;;;;;4999425;28;20034;-82
2024/01/31 01:50:03;;;;;;;2.95;2.28;;;8.30;1.00;;;;;;4989901;28;20463;-81
2024/01/31 01:52:31;;;;;;;1.02;0.98;;;8.40;1.00;;;;;;4987614;28;20031;-84
2024/01/31 01:54:58;;;;;;;5.57;1.73;;;8.50;1.00;;;;;;4981926;28;20030;-83
2024/01/31 01:57:25;;;;;;;1.92;1.80;;;8.40;1.00;;;;;;4992160;28;20027;-83
2024/01/31 01:59:51;;;;;;;8.00;3.28;;;8.40;1.00;;;;;;4986920;28;20057;-82
2024/01/31 02:02:18;;;;;;;5.95;1.38;;;8.30;1.00;;;;;;4983886;28;20046;-82
2024/01/31 02:04:45;;;;;;;3.80;1.83;;;8.30;1.00;;;;;;4981775;28;20031;-82
2024/01/31 02:07:11;;;;;;;2.13;1.83;;;8.30;1.00;;;;;;4979553;28;20455;-82
2024/01/31 02:09:37;;;;;;;2.35;2.15;;;8.20;27.50;;;;;;4986223;28;20022;-82
2024/01/31 02:12:04;;;;;;;16.23;1.80;;;8.30;86.70;;;;;;4985343;28;20042;-82
2024/01/31 02:14:30;;;;;;;3.05;2.22;;;8.30;99.90;;;;;;4977915;28;20039;-82
2024/01/31 02:16:57;;;;;;;1.27;1.17;;;8.30;99.90;;;;;;4971839;28;20022;-82
2024/01/31 02:19:23;;;;;;;1.65;1.55;;;8.20;99.90;;;;;;4980204;28;20035;-82
2024/01/31 02:21:56;;;;;;;1.23;1.13;;;8.20;99.90;;;;;;4988772;28;20050;-83
2024/01/31 02:24:23;;;;;;;3.30;2.53;;;8.20;99.90;;;;;;4986507;28;20031;-82
2024/01/31 02:26:49;;;;;;;0.55;0.55;;;8.10;99.90;;;;;;4984288;28;20053;-82
2024/01/31 02:29:15;;;;;;;2.15;1.23;;;8.20;99.90;;;;;;4980714;28;20039;-82
2024/01/31 02:31:41;;;;;;;2.55;2.33;;;8.10;99.90;;;;;;4990043;28;20030;-82
2024/01/31 02:34:07;;;;;;;2.38;2.28;;;8.10;99.90;;;;;;4988668;28;20034;-82
2024/01/31 02:36:33;;;;;;;1.75;1.60;;;8.10;1.00;;;;;;4983568;28;20046;-82
2024/01/31 02:39:00;;;;;;;1.40;1.30;;;8.10;1.00;;;;;;4980390;28;20050;-83
2024/01/31 02:41:26;;;;;;;2.15;1.95;;;8.10;1.00;;;;;;4983571;28;20030;-83
2024/01/31 02:43:52;;;;;;;3.40;1.92;;;8.00;1.00;;;;;;4984870;28;20488;-82
2024/01/31 02:46:18;;;;;;;13.98;2.38;;;8.00;1.00;;;;;;4985485;28;20348;-83
2024/01/31 02:48:46;;;;;;;1.25;0.90;;;8.00;1.00;;;;;;4979293;28;20461;-82
2024/01/31 02:51:12;;;;;;;1.38;1.27;;;8.00;1.00;;;;;;4993983;28;20041;-82
2024/01/31 02:53:38;;;;;;;4.45;1.40;;;7.90;1.00;;;;;;4985383;28;20030;-83
2024/01/31 02:56:08;;;;;;;2.05;1.95;;;7.90;8.40;;;;;;4986178;28;20342;-82
2024/01/31 02:58:35;;;;;;;0.90;0.90;;;7.90;28.20;;;;;;4983331;28;20357;-82
2024/01/31 03:01:05;;;;;;;1.90;1.58;;;7.90;44.10;;;;;;4983572;28;20034;-83
2024/01/31 03:03:31;;;;;;;4.43;2.50;;;7.90;42.00;;;;;;4985283;28;20035;-82
2024/01/31 03:05:57;;;;;;;1.15;1.08;;;7.90;36.40;;;;;;4983738;28;20022;-82
2024/01/31 03:08:23;;;;;;;2.38;1.42;;;7.80;70.60;;;;;;4985572;28;20041;-82
2024/01/31 03:10:50;;;;;;;1.10;0.98;;;7.80;71.30;;;;;;4982961;28;20559;-82
2024/01/31 03:13:16;;;;;;;4.10;1.90;;;7.80;70.90;;;;;;4984126;28;20039;-83
2024/01/31 03:15:42;;;;;;;1.27;0.75;;;7.80;88.50;;;;;;4982235;28;20066;-82
2024/01/31 03:18:08;;;;;;;1.70;1.60;;;7.80;99.90;;;;;;4983868;28;20125;-83
2024/01/31 03:20:34;;;;;;;1.98;1.67;;;7.80;99.90;;;;;;4980776;28;20030;-83
2024/01/31 03:23:01;;;;;;;6.13;2.92;;;7.70;99.90;;;;;;4979332;28;20042;-83
2024/01/31 03:25:27;;;;;;;1.88;1.77;;;7.70;99.90;;;;;;4990341;28;20057;-83
2024/01/31 03:27:53;;;;;;;5.32;2.28;;;7.70;99.90;;;;;;5003832;28;20045;-83
2024/01/31 03:30:19;;;;;;;2.03;1.67;;;7.80;99.90;;;;;;4983135;28;20029;-84
2024/01/31 03:32:46;;;;;;;2.38;2.15;;;7.80;99.90;;;;;;4985497;28;20138;-83
2024/01/31 03:35:12;;;;;;;1.00;0.93;;;7.80;99.90;;;;;;4985769;28;20027;-83
2024/01/31 03:37:39;;;;;;;4.07;1.60;;;7.80;99.90;;;;;;4986626;28;20054;-83
2024/01/31 03:40:06;;;;;;;3.33;2.53;;;7.80;99.90;;;;;;4983598;28;20472;-83
2024/01/31 03:42:33;;;;;;;3.05;2.85;;;7.70;99.90;;;;;;4986545;28;20034;-83
2024/01/31 03:44:59;;;;;;;3.97;2.72;;;7.70;99.90;;;;;;4987584;28;20026;-83
2024/01/31 03:47:25;;;;;;;4.60;2.45;;;7.70;99.90;;;;;;4993785;28;20483;-84
2024/01/31 03:49:52;;;;;;;8.90;4.10;;;7.70;99.90;;;;;;4998199;28;20033;-83
2024/01/31 03:52:18;;;;;;;2.30;2.10;;;7.70;99.90;;;;;;4987088;28;20031;-83
2024/01/31 03:54:44;;;;;;;2.60;2.45;;;7.70;99.90;;;;;;4985208;28;20034;-83
2024/01/31 03:57:10;;;;;;;2.72;1.52;;;7.60;99.90;;;;;;4987711;28;20176;-83
2024/01/31 03:59:37;;;;;;;1.45;1.35;;;7.60;99.90;;;;;;4985416;28;20034;-83
2024/01/31 04:02:03;;;;;;;2.13;1.95;;;7.50;99.90;;;;;;4984106;28;20033;-83
2024/01/31 04:04:31;;;;;;;1.00;0.98;;;7.50;99.90;;;;;;4986321;28;20091;-83
2024/01/31 04:06:57;;;;;;;3.22;2.78;;;7.50;99.90;;;;;;4987842;28;20043;-83
2024/01/31 04:09:23;;;;;;;5.78;1.52;;;7.50;99.90;;;;;;4981560;28;20030;-84
2024/01/31 04:11:49;;;;;;;2.10;2.00;;;7.40;99.90;;;;;;4979008;28;20046;-82
2024/01/31 04:14:16;;;;;;;1.70;1.55;;;7.50;99.90;;;;;;4995143;28;20031;-83
2024/01/31 04:16:42;;;;;;;3.47;2.85;;;7.50;99.90;;;;;;5013410;28;20448;-84
2024/01/31 04:19:09;;;;;;;1.60;1.50;;;7.40;99.90;;;;;;4984226;28;20214;-83
2024/01/31 04:21:35;;;;;;;2.83;1.88;;;7.40;99.90;;;;;;4996735;28;20034;-83
2024/01/31 04:24:01;;;;;;;3.05;1.88;;;7.40;99.90;;;;;;5000206;28;20026;-82
2024/01/31 04:26:27;;;;;;;2.25;2.05;;;7.40;99.90;;;;;;4991908;28;20356;-82
2024/01/31 04:28:53;;;;;;;5.07;3.00;;;7.30;99.90;;;;;;4996667;28;20022;-83
2024/01/31 04:31:20;;;;;;;2.67;1.90;;;7.30;99.90;;;;;;4990269;28;20034;-83
2024/01/31 04:33:46;;;;;;;5.78;3.88;;;7.30;99.90;;;;;;4986963;28;20042;-83
2024/01/31 04:36:12;;;;;;;3.50;3.20;;;7.30;99.90;;;;;;4977051;28;20050;-83
2024/01/31 04:38:39;;;;;;;3.05;2.75;;;7.30;99.90;;;;;;4987484;28;20033;-83
2024/01/31 04:41:05;;;;;;;1.10;1.10;;;7.30;99.90;;;;;;4986692;28;20049;-83
2024/01/31 04:43:31;;;;;;;4.80;4.13;;;7.30;99.90;;;;;;4991032;28;20034;-83
2024/01/31 04:45:58;;;;;;;2.85;2.47;;;7.30;99.90;;;;;;4983697;28;20045;-82
2024/01/31 04:48:24;;;;;;;1.83;1.73;;;7.30;99.90;;;;;;4991909;28;20046;-83
2024/01/31 04:50:50;;;;;;;2.30;1.90;;;7.30;99.90;;;;;;4988785;28;20039;-82
2024/01/31 04:53:17;;;;;;;2.30;2.10;;;7.30;99.90;;;;;;4988453;28;20401;-82
2024/01/31 04:55:44;;;;;;;2.60;2.20;;;7.20;99.90;;;;;;4991620;28;20041;-84
2024/01/31 04:58:11;;;;;;;4.15;3.22;;;7.20;99.90;;;;;;4996909;28;20075;-84
2024/01/31 05:00:38;;;;;;;2.47;2.25;;;7.20;99.90;;;;;;4987788;28;20042;-84
2024/01/31 05:03:04;;;;;;;1.83;1.73;;;7.20;99.90;;;;;;4989320;28;20043;-83
2024/01/31 05:05:30;;;;;;;2.15;1.98;;;7.20;99.90;;;;;;4984528;28;20050;-85
2024/01/31 05:07:56;;;;;;;8.02;1.95;;;7.20;99.90;;;;;;4983189;28;20031;-84
2024/01/31 05:10:23;;;;;;;1.83;1.70;;;7.20;99.90;;;;;;4985677;28;20463;-85
2024/01/31 05:12:49;;;;;;;1.40;1.30;;;7.10;99.90;;;;;;4986192;28;20038;-83
2024/01/31 05:15:15;;;;;;;1.52;1.42;;;7.10;99.90;;;;;;4986258;28;20034;-84
2024/01/31 05:17:41;;;;;;;3.95;2.22;;;7.10;99.90;;;;;;4989195;28;20097;-83
2024/01/31 05:20:08;;;;;;;2.25;2.05;;;7.10;99.90;;;;;;4982387;28;20027;-82
2024/01/31 05:22:34;;;;;;;3.38;3.05;;;7.10;99.90;;;;;;4985220;28;20037;-83
2024/01/31 05:25:00;;;;;;;2.40;1.35;;;7.10;99.90;;;;;;4984161;28;20034;-82
2024/01/31 05:27:26;;;;;;;3.67;1.05;;;7.00;99.90;;;;;;4984417;28;20034;-83
2024/01/31 05:29:53;;;;;;;1.40;1.23;;;7.00;99.90;;;;;;4983352;28;20030;-82
2024/01/31 05:32:19;;;;;;;1.60;1.55;;;7.00;99.90;;;;;;4983960;28;20042;-83
2024/01/31 05:34:45;;;;;;;2.70;2.15;;;7.00;99.90;;;;;;4984352;28;20038;-83
2024/01/31 05:37:14;;;;;;;1.02;0.95;;;6.90;99.90;;;;;;4986566;28;20053;-83
2024/01/31 05:39:40;;;;;;;2.13;1.92;;;6.90;99.90;;;;;;4986362;28;20181;-83
2024/01/31 05:42:06;;;;;;;9.30;4.25;;;6.90;99.90;;;;;;4981645;28;20042;-83
2024/01/31 05:44:33;;;;;;;2.55;1.80;;;6.90;99.90;;;;;;4987082;28;20041;-83
2024/01/31 05:46:59;;;;;;;1.55;1.45;;;6.80;99.90;;;;;;4986271;28;20018;-83
2024/01/31 05:49:25;;;;;;;2.40;2.20;;;6.80;99.90;;;;;;4986044;28;20046;-83
2024/01/31 05:51:51;;;;;;;3.15;2.35;;;6.70;99.90;;;;;;4985773;28;20445;-82
2024/01/31 05:54:19;;;;;;;5.53;3.88;;;6.70;99.90;;;;;;4981640;28;20050;-83
2024/01/31 05:56:45;;;;;;;2.55;1.50;;;6.70;99.90;;;;;;4983666;28;20456;-83
2024/01/31 05:59:11;;;;;;;2.88;2.67;;;6.60;99.90;;;;;;4983974;28;20070;-82
2024/01/31 06:01:37;;;;;;;2.55;1.85;;;6.60;99.90;;;;;;4981623;28;20030;-83
2024/01/31 06:04:06;;;;;;;1.38;1.33;;;6.50;99.90;;;;;;4980945;28;20026;-83
2024/01/31 06:06:32;;;;;;;4.57;3.13;;;6.50;99.90;;;;;;4987107;28;20058;-82
2024/01/31 06:08:58;;;;;;;7.43;2.95;;;6.50;99.90;;;;;;4991303;28;20026;-83
2024/01/31 06:11:24;;;;;;;5.65;3.08;;;6.50;99.90;;;;;;4991895;28;20432;-82
2024/01/31 06:13:50;;;;;;;9.02;3.00;;;6.40;99.90;;;;;;5010263;28;20101;-84
2024/01/31 06:16:16;;;;;;;9.95;1.38;;;6.40;99.90;;;;;;4985947;28;20557;-83
2024/01/31 06:18:43;;;;;;;3.10;2.88;;;6.40;99.90;;;;;;4995110;28;20026;-80
2024/01/31 06:21:09;;;;;;;20.67;3.22;;;6.30;99.90;;;;;;4992111;28;20033;-83
2024/01/31 06:23:35;;;;;;;1.80;1.65;;;6.20;99.90;;;;;;4990850;28;20034;-83
2024/01/31 06:26:02;;;;;;;1.00;0.95;;;6.20;99.90;;;;;;4985411;28;20033;-83
2024/01/31 06:28:28;;;;;;;2.60;2.40;;;6.30;99.90;;;;;;4990664;28;20026;-84
2024/01/31 06:31:03;;;;;;;3.55;2.10;;;6.30;99.90;;;;;;4989004;28;20029;-82
2024/01/31 06:33:35;;;;;;;1.65;1.55;;;6.20;99.90;;;;;;4981493;28;20042;-84
2024/01/31 06:36:01;;;;;;;1.88;1.50;;;6.20;99.90;;;;;;4980155;28;20368;-84
2024/01/31 06:38:28;;;;;;;0.70;0.70;;;6.10;99.90;;;;;;4987012;28;20038;-84
2024/01/31 06:40:58;;;;;;;1.98;1.85;;;5.90;99.90;;;;;;4987897;28;20056;-84
2024/01/31 06:43:24;;;;;;;4.03;3.33;;;5.80;99.90;;;;;;4986886;28;20047;-83
2024/01/31 06:45:52;;;;;;;2.38;2.17;;;5.70;99.90;;;;;;4981754;28;20030;-84
2024/01/31 06:48:18;;;;;;;1.33;1.23;;;5.70;99.90;;;;;;4984770;28;20437;-84
2024/01/31 06:50:44;;;;;;;3.30;2.20;;;5.60;99.90;;;;;;4986524;28;20034;-83
2024/01/31 06:53:11;;;;;;;1.77;1.67;;;5.50;99.90;;;;;;4984827;28;20047;-84
2024/01/31 06:55:37;;;;;;;8.75;3.03;;;5.50;99.90;;;;;;4985234;28;20053;-84
2024/01/31 06:58:03;;;;;;;4.55;3.55;;;5.50;99.90;;;;;;4968685;28;20049;-84
2024/01/31 07:00:29;;;;;;;2.83;2.58;;;5.50;99.90;;;;;;4988548;28;20038;-84
2024/01/31 07:02:57;;;;;;;1.27;1.17;;;5.50;99.90;;;;;;4997281;28;20038;-81
2024/01/31 07:05:23;;;;;;;3.05;2.60;;;5.50;99.90;;;;;;5010702;28;20022;-83
2024/01/31 07:07:52;;;;;;;2.08;1.98;;;5.40;99.90;;;;;;5002339;28;20030;-83
2024/01/31 07:10:19;;;;;;;6.75;2.67;;;5.30;99.90;;;;;;4990330;28;20038;-84
2024/01/31 07:12:45;;;;;;;1.27;1.27;;;5.30;99.90;;;;;;4988075;28;20030;-84
2024/01/31 07:15:11;;;;;;;1.88;1.77;;;5.30;99.90;;;;;;4982264;28;20043;-84
2024/01/31 07:17:37;;;;;;;3.97;3.63;;;5.20;99.90;;;;;;4979115;28;20027;-84
2024/01/31 07:20:04;;;;;;;2.85;2.65;;;5.20;99.90;;;;;;4980191;28;20029;-82
2024/01/31 07:22:30;;;;;;;2.22;2.13;;;5.20;99.90;;;;;;4985354;28;20212;-83
2024/01/31 07:24:56;;;;;;;2.42;2.33;;;5.10;99.90;;;;;;4984234;28;20030;-82
2024/01/31 07:27:23;;;;;;;1.75;1.65;;;5.10;99.90;;;;;;4983482;28;20038;-84
2024/01/31 07:29:49;;;;;;;1.42;1.30;;;5.10;99.90;;;;;;4980633;28;20034;-81
2024/01/31 07:32:15;;;;;;;2.72;2.42;;;5.10;99.90;;;;;;4998820;28;20046;-82
2024/01/31 07:34:41;;;;;;;1.25;1.25;;;5.20;99.90;;;;;;4983938;28;20041;-83
2024/01/31 07:37:08;;;;;;;1.83;1.35;;;5.20;99.90;;;;;;4978862;28;20050;-81
2024/01/31 07:39:34;;;;;;;1.15;1.10;;;5.20;99.90;;;;;;4980800;28;20451;-81
2024/01/31 07:42:00;;;;;;;1.85;1.73;;;5.20;99.90;;;;;;4982482;28;20037;-81
2024/01/31 07:44:26;;;;;;;0.65;0.47;;;5.30;99.90;;;;;;4985230;28;20030;-81
2024/01/31 07:46:52;;;;;;;0.88;0.88;;;5.30;99.90;;;;;;4985469;28;20026;-81
2024/01/31 07:49:18;;;;;;;2.45;1.98;;;5.40;99.90;;;;;;4984653;28;20045;-81
2024/01/31 07:51:45;;;;;;;7.78;3.35;;;5.40;99.90;;;;;;4987896;28;20384;-81
2024/01/31 07:54:12;;;;;;;3.63;3.33;;;5.40;99.90;;;;;;4987651;28;20050;-81
2024/01/31 07:56:38;;;;;;;6.45;4.25;;;5.40;99.90;;;;;;4987855;28;20049;-81
2024/01/31 07:59:06;;;;;;;2.75;2.55;;;5.50;99.90;;;;;;4977657;28;20066;-79
2024/01/31 08:01:33;;;;;;;2.80;2.50;;;5.60;99.90;;;;;;4976363;28;20034;-79
2024/01/31 08:03:59;;;;;;;4.38;3.45;;;5.60;99.90;;;;;;4982327;28;20033;-82
2024/01/31 08:06:25;;;;;;;3.67;2.75;;;5.60;99.90;;;;;;4990763;28;20177;-82
2024/01/31 08:08:52;;;;;;;3.50;3.28;;;5.60;99.90;;;;;;4988394;28;20039;-82
2024/01/31 08:11:18;;;;;;;4.65;3.25;;;5.70;99.90;;;;;;4983197;28;20034;-82
2024/01/31 08:13:44;;;;;;;2.67;2.47;;;5.70;99.90;;;;;;4985142;28;20415;-82
2024/01/31 08:16:14;;;;;;;2.60;2.45;;;5.80;99.90;;;;;;4987909;28;20341;-81
2024/01/31 08:18:41;;;;;;;1.85;1.75;;;5.90;99.90;;;;;;4988867;28;20046;-82
2024/01/31 08:21:07;;;;;;;1.70;1.45;;;6.00;99.90;;;;;;4984059;28;20041;-81
2024/01/31 08:23:33;;;;;;;1.95;1.85;;;6.10;99.90;;;;;;4995053;28;20042;-81
2024/01/31 08:25:59;;;;;;;0.82;0.80;;;6.20;99.90;;;;;;4987268;28;20034;-81
2024/01/31 08:28:26;;;;;;;3.03;1.55;;;6.30;99.90;;;;;;4988659;28;20026;-82
2024/01/31 08:30:52;;;;;;;3.75;2.28;;;6.40;99.90;;;;;;4987421;28;20034;-82
2024/01/31 08:33:19;;;;;;;2.30;2.15;;;6.50;99.90;;;;;;4986858;28;20030;-81
2024/01/31 08:35:45;;;;;;;2.90;1.98;;;6.60;99.90;;;;;;4988288;28;20055;-81
2024/01/31 08:38:11;;;;;;;4.95;4.28;;;6.80;99.90;;;;;;4987453;28;20472;-81
2024/01/31 08:40:39;;;;;;;3.40;1.52;;;6.90;99.90;;;;;;4988424;28;20030;-82
2024/01/31 08:43:05;;;;;;;1.27;1.25;;;7.10;51.10;;;;;;4983514;28;20027;-81
2024/01/31 08:45:31;;;;;;;2.15;1.92;;;7.20;99.90;;;;;;4986454;28;20047;-82
2024/01/31 08:47:57;;;;;;;4.03;2.65;;;7.20;99.90;;;;;;4987782;28;20349;-79
2024/01/31 08:50:23;;;;;;;2.13;1.85;;;7.30;99.90;;;;;;4988179;28;20026;-82
2024/01/31 08:52:49;;;;;;;1.90;1.73;;;7.40;99.90;;;;;;4979040;28;20031;-81
2024/01/31 08:55:16;;;;;;;2.55;2.17;;;7.60;1.00;;;;;;4994189;28;20039;-82
2024/01/31 08:57:42;;;;;;;0.30;0.30;;;7.70;1.00;;;;;;4986102;28;20042;-83
2024/01/31 09:00:10;;;;;;;1.27;0.80;;;7.80;1.00;;;;;;4990565;28;20018;-82
2024/01/31 09:02:36;;;;;;;2.47;1.92;;;7.80;1.00;;;;;;4986212;28;20045;-82
2024/01/31 09:05:03;;;;;;;0.55;0.55;;;8.10;1.00;;;;;;4981055;28;20061;-82
2024/01/31 09:07:29;;;;;;;1.15;1.08;;;8.30;99.90;;;;;;4981843;28;20018;-82
2024/01/31 09:09:55;;;;;;;0.30;0.30;;;8.30;99.90;;;;;;4988085;28;20042;-82
2024/01/31 09:12:21;;;;;;;1.08;0.90;;;8.40;99.90;;;;;;4986785;28;20038;-82
2024/01/31 09:14:48;;;;;;;0.70;0.52;;;8.50;99.90;;;;;;4983158;28;20034;-82
2024/01/31 09:17:14;;;;;;;21.30;2.05;;;8.50;99.90;;;;;;4982874;28;20026;-82
2024/01/31 09:19:41;;;;;;;0.55;0.55;;;8.50;99.90;;;;;;4984407;28;20041;-82
2024/01/31 09:22:07;;;;;;;0.65;0.65;;;8.60;99.90;;;;;;4986423;28;20368;-82
2024/01/31 09:24:33;;;;;;;0.35;0.35;;;8.70;99.90;;;;;;4983019;28;20027;-81
2024/01/31 09:26:59;;;;;;;0.30;0.30;;;8.90;45.30;;;;;;4979085;28;20026;-81
2024/01/31 09:29:25;;;;;;;0.30;0.30;;;8.90;12.30;;;;;;4983619;28;20027;-81
2024/01/31 09:31:52;;;;;;;0.63;0.52;;;8.90;1.00;;;;;;4987252;28;20041;-82
2024/01/31 09:34:18;;;;;;;0.20;0.20;;;8.80;99.90;;;;;;4987146;28;20034;-82
2024/01/31 09:36:45;;;;;;;4.65;0.95;;;8.80;99.90;;;;;;4944639;28;1110112;-82
2024/01/31 09:39:12;;;;;;;0.50;0.50;;;8.80;99.90;;;;;;4984353;28;20041;-82
2024/01/31 09:41:38;;;;;;;0.10;0.10;;;8.90;99.90;;;;;;4986172;28;20022;-82
2024/01/31 09:44:04;;;;;;;0.88;0.45;;;8.90;99.90;;;;;;4995252;28;20022;-83
2024/01/31 09:46:32;;;;;;;0.10;0.10;;;9.00;99.90;;;;;;5001150;28;20031;-80
2024/01/31 09:48:58;;;;;;;0.35;0.35;;;8.90;99.90;;;;;;4998026;28;20042;-81
2024/01/31 09:51:25;;;;;;;0.85;0.47;;;8.90;99.90;;;;;;4988190;28;20042;-81
2024/01/31 09:53:58;;;;;;;0.40;0.40;;;9.00;99.90;;;;;;4987184;28;20042;-81
2024/01/31 09:56:27;;;;;;;0.20;0.20;;;9.20;99.90;;;;;;4998467;28;20038;-82
2024/01/31 09:58:55;;;;;;;0.55;0.50;;;9.40;1.00;;;;;;4982985;28;20030;-81
2024/01/31 10:01:23;;;;;;;0.20;0.20;;;9.30;1.00;;;;;;4983182;28;20407;-81
2024/01/31 10:03:49;;;;;;;0.10;0.10;;;9.30;1.00;;;;;;4985797;28;20030;-81
2024/01/31 10:06:16;;;;;;;0.68;0.32;;;9.50;1.00;;;;;;4986165;28;20033;-81
2024/01/31 10:08:42;;;;;;;0.30;0.30;;;9.60;1.00;;;;;;4995042;28;20035;-81
2024/01/31 10:11:08;;;;;;;0.22;0.22;;;9.70;1.00;;;;;;4983563;28;20038;-81
2024/01/31 10:13:34;;;;;;;0.38;0.38;;;9.60;1.00;;;;;;4985796;28;20040;-81
2024/01/31 10:16:00;;;;;;;0.30;0.30;;;9.70;1.00;;;;;;5003243;28;20387;-81
2024/01/31 10:18:28;;;;;;;23.23;14.23;;;9.90;1.00;;;;;;4983499;28;20022;-81
2024/01/31 10:20:56;;;;;;;10.00;7.63;;;10.00;1.00;;;;;;4983351;28;20035;-81
2024/01/31 10:23:23;;;;;;;1.52;1.42;;;10.20;1.00;;;;;;4988900;28;20054;-81
2024/01/31 10:25:50;;;;;;;0.75;0.63;;;10.30;1.00;;;;;;4985755;28;20371;-80
2024/01/31 10:28:19;;;;;;;0.15;0.15;;;10.40;99.90;;;;;;4988858;28;20038;-80
2024/01/31 10:30:47;;;;;;;0.10;0.10;;;10.30;99.90;;;;;;4981948;28;20042;-80
2024/01/31 10:33:14;;;;;;;0.30;0.30;;;10.20;99.90;;;;;;4981516;28;20472;-80
2024/01/31 10:35:45;;;;;;;1.45;0.65;;;10.30;99.90;;;;;;4982748;28;20055;-79
2024/01/31 10:38:13;;;;;;;0.13;0.13;;;10.30;99.90;;;;;;4984585;28;20030;-79
2024/01/31 10:40:41;;;;;;;0.20;0.20;;;10.20;99.90;;;;;;4997116;28;20479;-79
2024/01/31 10:43:09;;;;;;;0.10;0.10;;;10.30;99.90;;;;;;4985190;28;20038;-80
2024/01/31 10:45:35;;;;;;;0.22;0.22;;;10.40;99.90;;;;;;4985377;28;20035;-81
2024/01/31 10:48:05;;;;;;;0.10;0.10;;;10.50;99.90;;;;;;4984980;28;20039;-80
2024/01/31 10:50:31;;;;;;;0.22;0.22;;;10.50;99.90;;;;;;4998663;28;20073;-80
2024/01/31 10:52:59;;;;;;;0.20;0.20;;;10.40;99.90;;;;;;4981283;28;20031;-80
2024/01/31 10:55:26;;;;;;;0.10;0.10;;;10.30;99.90;;;;;;4979780;28;20058;-80
2024/01/31 10:57:54;;;;;;;0.15;0.15;;;10.50;99.90;;;;;;4986535;28;20026;-80
2024/01/31 11:00:32;;;;;;;0.47;0.47;;;10.60;99.90;;;;;;4985721;28;20031;-80
2024/01/31 11:03:00;;;;;;;0.20;0.20;;;10.70;99.90;;;;;;4981655;28;20042;-82
2024/01/31 11:05:30;;;;;;;0.50;0.28;;;10.70;99.90;;;;;;4979535;28;20038;-81
2024/01/31 11:07:58;;;;;;;0.10;0.10;;;10.90;99.90;;;;;;4972269;28;20432;-81
2024/01/31 11:10:26;;;;;;;0.20;0.20;;;10.60;99.90;;;;;;4988436;28;20030;-83
2024/01/31 11:13:04;;;;;;;0.10;0.10;;;10.60;99.90;;;;;;4983804;28;20031;-81
2024/01/31 11:15:32;;;;;;;0.10;0.10;;;10.50;99.90;;;;;;4983015;28;20045;-81
2024/01/31 11:18:04;;;;;;;0.20;0.20;;;10.60;99.90;;;;;;4983250;28;20034;-81
2024/01/31 11:20:33;;;;;;;0.35;0.35;;;11.00;99.90;;;;;;4984661;28;20031;-80
2024/01/31 11:23:03;;;;;;;0.63;0.63;;;11.00;99.90;;;;;;4983347;28;20033;-81
2024/01/31 11:25:34;;;;;;;0.27;0.27;;;11.10;99.90;;;;;;4981463;28;20042;-81
2024/01/31 11:28:01;;;;;;;;;;;11.10;99.90;;;;;;4984787;28;20035;-81
2024/01/31 11:30:28;;;;;;;0.30;0.30;;;11.30;99.90;;;;;;4984804;28;19910;-82
2024/01/31 11:32:54;;;;;;;0.10;0.10;;;11.20;99.90;;;;;;4990850;28;20029;-81
2024/01/31 11:35:24;;;;;;;0.35;0.35;;;10.90;99.90;;;;;;4990252;28;20042;-81
2024/01/31 11:37:51;;;;;;;0.75;0.75;;;11.00;99.90;;;;;;4991910;28;20472;-81
2024/01/31 11:40:19;;;;;;;0.52;0.52;;;10.90;99.90;;;;;;4986027;28;20480;-81
2024/01/31 11:42:47;;;;;;;0.17;0.17;;;10.60;99.90;;;;;;4986121;28;20026;-82
2024/01/31 11:45:15;;;;;;;0.10;0.10;;;10.50;99.90;;;;;;4980357;28;20379;-80
2024/01/31 11:47:41;;;;;;;4.72;0.60;;;10.40;99.90;;;;;;4983005;28;20038;-79
2024/01/31 11:50:08;;;;;;;0.25;0.22;;;10.40;99.90;;;;;;4985632;28;20034;-78
2024/01/31 11:52:34;;;;;;;0.10;0.10;;;10.50;99.90;;;;;;4986777;28;20022;-83
2024/01/31 11:55:00;;;;;;;0.30;0.30;;;10.50;99.90;;;;;;4983991;28;20041;-82
2024/01/31 11:57:27;;;;;;;0.52;0.38;;;10.40;99.90;;;;;;4978424;28;20034;-81
2024/01/31 11:59:54;;;;;;;0.10;0.10;;;10.40;99.90;;;;;;4985658;28;20045;-81
2024/01/31 12:02:20;;;;;;;0.10;0.10;;;10.40;99.90;;;;;;4987954;28;20030;-82
2024/01/31 12:04:51;;;;;;;0.10;0.10;;;10.30;99.90;;;;;;4985883;28;20034;-80
2024/01/31 12:07:18;;;;;;;0.10;0.10;;;10.20;99.90;;;;;;4982452;28;20456;-81
2024/01/31 12:09:44;;;;;;;0.10;0.10;;;10.10;99.90;;;;;;4980770;28;20034;-83
2024/01/31 12:12:11;;;;;;;0.10;0.10;;;10.00;99.90;;;;;;4983288;28;20031;-82
2024/01/31 12:14:37;;;;;;;0.10;0.10;;;10.00;99.90;;;;;;4983725;28;20054;-81
2024/01/31 12:17:03;;;;;;;0.10;0.10;;;10.10;99.90;;;;;;4984349;28;20031;-82
2024/01/31 12:19:30;;;;;;;0.20;0.20;;;10.10;99.90;;;;;;4979382;28;20035;-82
2024/01/31 12:21:56;;;;;;;0.25;0.25;;;10.20;99.90;;;;;;4984398;28;20045;-82
2024/01/31 12:24:23;;;;;;;0.38;0.38;;;10.20;99.90;;;;;;4985919;28;20026;-81
2024/01/31 12:26:49;;;;;;;2.28;1.25;;;10.10;99.90;;;;;;4985872;28;20460;-81
2024/01/31 12:29:15;;;;;;;1.13;1.10;;;10.00;99.90;;;;;;4995474;28;20026;-81
2024/01/31 12:31:41;;;;;;;0.20;0.20;;;9.90;99.90;;;;;;4994268;28;20043;-81
2024/01/31 12:34:09;;;;;;;0.20;0.20;;;9.80;99.90;;;;;;4992888;28;20037;-80
2024/01/31 12:36:35;;;;;;;1.17;1.02;;;9.90;99.90;;;;;;4988505;28;20388;-81
2024/01/31 12:39:01;;;;;;;0.45;0.45;;;9.90;99.90;;;;;;4999236;28;20468;-81
2024/01/31 12:41:28;;;;;;;0.30;0.30;;;9.90;99.90;;;;;;4985098;28;20042;-81
2024/01/31 12:43:54;;;;;;;0.10;0.10;;;9.90;99.90;;;;;;4986771;28;20019;-80
2024/01/31 12:46:20;;;;;;;0.10;0.10;;;10.00;99.90;;;;;;4987385;28;20041;-80
2024/01/31 12:48:46;;;;;;;0.17;0.17;;;10.10;99.90;;;;;;4987387;28;20452;-81
2024/01/31 12:51:12;;;;;;;0.10;0.10;;;10.10;99.90;;;;;;4986207;28;20034;-80
2024/01/31 12:53:39;;;;;;;0.10;0.10;;;10.10;99.90;;;;;;4985996;28;20026;-81